sensor_id;sensor_type;location;lat;lon;timestamp;pressure;altitude;pressure_sealevel;temperature;humidity
8320;BME280;4197;42.130;24.746;2022-09-09T00:00:13;99695.19;;;17.88;98.14
8320;BME280;4197;42.130;24.746;2022-09-09T00:02:46;99689.31;;;17.75;98.76
8320;BME280;4197;42.130;24.746;2022-09-09T00:05:22;99692.88;;;17.79;99.20
8320;BME280;4197;42.130;24.746;2022-09-09T00:07:59;99692.44;;;17.77;99.03
8320;BME280;4197;42.130;24.746;2022-09-09T00:10:32;99685.41;;;17.80;98.64
8320;BME280;4197;42.130;24.746;2022-09-09T00:13:08;99694.00;;;17.75;99.42
8320;BME280;4197;42.130;24.746;2022-09-09T00:15:58;99693.25;;;17.67;100.00
8320;BME280;4197;42.130;24.746;2022-09-09T00:19:00;99692.47;;;17.63;100.00
8320;BME280;4197;42.130;24.746;2022-09-09T00:21:53;99685.03;;;17.56;100.00
8320;BME280;4197;42.130;24.746;2022-09-09T00:24:55;99689.75;;;17.56;100.00
8320;BME280;4197;42.130;24.746;2022-09-09T00:27:52;99685.81;;;17.53;100.00
8320;BME280;4197;42.130;24.746;2022-09-09T00:30:49;99688.97;;;17.52;100.00
8320;BME280;4197;42.130;24.746;2022-09-09T00:33:20;99693.28;;;17.49;100.00
8320;BME280;4197;42.130;24.746;2022-09-09T00:35:52;99701.13;;;17.47;100.00
8320;BME280;4197;42.130;24.746;2022-09-09T00:38:25;99703.47;;;17.49;100.00
8320;BME280;4197;42.130;24.746;2022-09-09T00:41:02;99705.06;;;17.46;100.00
8320;BME280;4197;42.130;24.746;2022-09-09T00:43:35;99701.13;;;17.44;100.00
8320;BME280;4197;42.130;24.746;2022-09-09T00:46:32;99698.78;;;17.38;100.00
8320;BME280;4197;42.130;24.746;2022-09-09T00:49:13;99700.34;;;17.29;100.00
8320;BME280;4197;42.130;24.746;2022-09-09T00:51:50;99692.53;;;17.27;100.00
8320;BME280;4197;42.130;24.746;2022-09-09T00:54:40;99702.34;;;17.21;100.00
8320;BME280;4197;42.130;24.746;2022-09-09T00:57:23;99704.69;;;17.19;100.00
8320;BME280;4197;42.130;24.746;2022-09-09T01:00:17;99704.69;;;17.19;100.00
8320;BME280;4197;42.130;24.746;2022-09-09T01:03:02;99706.63;;;17.22;100.00
8320;BME280;4197;42.130;24.746;2022-09-09T01:05:36;99708.19;;;17.20;100.00
8320;BME280;4197;42.130;24.746;2022-09-09T01:08:15;99711.31;;;17.18;100.00
8320;BME280;4197;42.130;24.746;2022-09-09T01:10:49;99704.28;;;17.13;100.00
8320;BME280;4197;42.130;24.746;2022-09-09T01:13:24;99704.66;;;17.12;100.00
8320;BME280;4197;42.130;24.746;2022-09-09T01:15:53;99698.03;;;17.27;100.00
8320;BME280;4197;42.130;24.746;2022-09-09T01:18:30;99706.25;;;17.24;100.00
8320;BME280;4197;42.130;24.746;2022-09-09T01:21:07;99701.94;;;17.19;100.00
8320;BME280;4197;42.130;24.746;2022-09-09T01:24:01;99692.94;;;17.19;100.00
8320;BME280;4197;42.130;24.746;2022-09-09T01:26:35;99701.16;;;17.08;100.00
8320;BME280;4197;42.130;24.746;2022-09-09T01:29:07;99697.63;;;17.11;100.00
8320;BME280;4197;42.130;24.746;2022-09-09T01:31:38;99695.69;;;17.08;100.00
8320;BME280;4197;42.130;24.746;2022-09-09T01:34:11;99698.41;;;17.04;100.00
8320;BME280;4197;42.130;24.746;2022-09-09T01:36:44;99692.53;;;17.06;100.00
8320;BME280;4197;42.130;24.746;2022-09-09T01:39:14;99694.50;;;17.09;100.00
8320;BME280;4197;42.130;24.746;2022-09-09T01:41:44;99693.72;;;17.12;100.00
8320;BME280;4197;42.130;24.746;2022-09-09T01:44:12;99686.69;;;17.07;100.00
8320;BME280;4197;42.130;24.746;2022-09-09T01:46:40;99698.41;;;16.93;100.00
8320;BME280;4197;42.130;24.746;2022-09-09T01:49:09;99689.41;;;16.86;100.00
8320;BME280;4197;42.130;24.746;2022-09-09T01:51:38;99683.94;;;16.89;100.00
8320;BME280;4197;42.130;24.746;2022-09-09T01:54:07;99687.84;;;16.88;100.00
8320;BME280;4197;42.130;24.746;2022-09-09T01:56:45;99693.72;;;16.90;100.00
8320;BME280;4197;42.130;24.746;2022-09-09T01:59:29;99692.94;;;16.93;100.00
8320;BME280;4197;42.130;24.746;2022-09-09T02:02:09;99689.41;;;16.86;100.00
8320;BME280;4197;42.130;24.746;2022-09-09T02:04:40;99689.41;;;16.86;100.00
8320;BME280;4197;42.130;24.746;2022-09-09T02:07:19;99690.97;;;16.83;100.00
8320;BME280;4197;42.130;24.746;2022-09-09T02:09:57;99695.66;;;16.83;100.00
8320;BME280;4197;42.130;24.746;2022-09-09T02:12:29;99690.19;;;16.83;100.00
8320;BME280;4197;42.130;24.746;2022-09-09T02:15:02;99689.00;;;16.80;100.00
8320;BME280;4197;42.130;24.746;2022-09-09T02:17:33;99685.50;;;16.80;100.00
8320;BME280;4197;42.130;24.746;2022-09-09T02:20:06;99685.88;;;16.78;100.00
8320;BME280;4197;42.130;24.746;2022-09-09T02:22:35;99681.59;;;16.77;100.00
8320;BME280;4197;42.130;24.746;2022-09-09T02:25:08;99672.19;;;16.89;100.00
8320;BME280;4197;42.130;24.746;2022-09-09T02:27:40;99681.56;;;16.84;100.00
8320;BME280;4197;42.130;24.746;2022-09-09T02:30:10;99677.66;;;16.78;100.00
8320;BME280;4197;42.130;24.746;2022-09-09T02:32:39;99684.66;;;16.72;100.00
8320;BME280;4197;42.130;24.746;2022-09-09T02:35:12;99684.66;;;16.72;100.00
8320;BME280;4197;42.130;24.746;2022-09-09T02:37:42;99686.22;;;16.73;100.00
8320;BME280;4197;42.130;24.746;2022-09-09T02:40:13;99684.28;;;16.66;100.00
8320;BME280;4197;42.130;24.746;2022-09-09T02:42:44;99681.50;;;16.56;100.00
8320;BME280;4197;42.130;24.746;2022-09-09T02:45:16;99688.53;;;16.49;100.00
8320;BME280;4197;42.130;24.746;2022-09-09T02:47:49;99688.53;;;16.49;100.00
8320;BME280;4197;42.130;24.746;2022-09-09T02:50:25;99686.19;;;16.51;100.00
8320;BME280;4197;42.130;24.746;2022-09-09T02:53:05;99697.53;;;16.54;100.00
8320;BME280;4197;42.130;24.746;2022-09-09T02:55:42;99690.09;;;16.54;100.00
8320;BME280;4197;42.130;24.746;2022-09-09T02:58:16;99700.31;;;16.57;100.00
8320;BME280;4197;42.130;24.746;2022-09-09T03:00:47;99696.78;;;16.60;100.00
8320;BME280;4197;42.130;24.746;2022-09-09T03:03:17;99701.84;;;16.62;100.00
8320;BME280;4197;42.130;24.746;2022-09-09T03:05:46;99702.63;;;16.62;100.00
8320;BME280;4197;42.130;24.746;2022-09-09T03:08:14;99697.56;;;16.61;100.00
8320;BME280;4197;42.130;24.746;2022-09-09T03:10:43;99695.59;;;16.61;100.00
8320;BME280;4197;42.130;24.746;2022-09-09T03:13:11;99691.31;;;16.60;100.00
8320;BME280;4197;42.130;24.746;2022-09-09T03:15:44;99698.31;;;16.50;100.00
8320;BME280;4197;42.130;24.746;2022-09-09T03:18:12;99697.53;;;16.46;100.00
8320;BME280;4197;42.130;24.746;2022-09-09T03:20:40;99700.66;;;16.45;100.00
8320;BME280;4197;42.130;24.746;2022-09-09T03:23:09;99711.19;;;16.39;100.00
8320;BME280;4197;42.130;24.746;2022-09-09T03:25:46;99709.59;;;16.35;100.00
8320;BME280;4197;42.130;24.746;2022-09-09T03:28:15;99711.97;;;16.36;100.00
8320;BME280;4197;42.130;24.746;2022-09-09T03:30:44;99713.53;;;16.37;100.00
8320;BME280;4197;42.130;24.746;2022-09-09T03:33:12;99718.22;;;16.37;100.00
8320;BME280;4197;42.130;24.746;2022-09-09T03:35:45;99724.50;;;16.51;100.00
8320;BME280;4197;42.130;24.746;2022-09-09T03:38:15;99716.28;;;16.44;100.00
8320;BME280;4197;42.130;24.746;2022-09-09T03:40:49;99722.53;;;16.41;100.00
8320;BME280;4197;42.130;24.746;2022-09-09T03:43:17;99724.50;;;16.41;100.00
8320;BME280;4197;42.130;24.746;2022-09-09T03:45:48;99727.22;;;16.37;100.00
8320;BME280;4197;42.130;24.746;2022-09-09T03:48:17;99719.00;;;16.30;100.00
8320;BME280;4197;42.130;24.746;2022-09-09T03:50:46;99720.94;;;16.33;100.00
8320;BME280;4197;42.130;24.746;2022-09-09T03:53:15;99717.44;;;16.40;100.00
8320;BME280;4197;42.130;24.746;2022-09-09T03:55:44;99716.25;;;16.37;100.00
8320;BME280;4197;42.130;24.746;2022-09-09T03:58:13;99722.50;;;16.38;100.00
8320;BME280;4197;42.130;24.746;2022-09-09T04:00:41;99719.41;;;16.39;100.00
8320;BME280;4197;42.130;24.746;2022-09-09T04:03:13;99717.03;;;16.31;100.00
8320;BME280;4197;42.130;24.746;2022-09-09T04:05:42;99713.88;;;16.32;100.00
8320;BME280;4197;42.130;24.746;2022-09-09T04:08:10;99729.97;;;16.44;100.00
8320;BME280;4197;42.130;24.746;2022-09-09T04:10:38;99720.22;;;16.47;100.00
8320;BME280;4197;42.130;24.746;2022-09-09T04:13:06;99719.03;;;16.51;100.00
8320;BME280;4197;42.130;24.746;2022-09-09T04:15:34;99717.47;;;16.47;100.00
8320;BME280;4197;42.130;24.746;2022-09-09T04:18:03;99720.97;;;16.40;100.00
8320;BME280;4197;42.130;24.746;2022-09-09T04:20:33;99724.47;;;16.34;100.00
8320;BME280;4197;42.130;24.746;2022-09-09T04:23:02;99716.25;;;16.37;100.00
8320;BME280;4197;42.130;24.746;2022-09-09T04:25:30;99709.59;;;16.27;100.00
8320;BME280;4197;42.130;24.746;2022-09-09T04:27:58;99708.03;;;16.30;100.00
8320;BME280;4197;42.130;24.746;2022-09-09T04:30:26;99709.25;;;16.43;100.00
8320;BME280;4197;42.130;24.746;2022-09-09T04:32:56;99715.91;;;16.49;100.00
8320;BME280;4197;42.130;24.746;2022-09-09T04:35:24;99720.63;;;16.60;100.00
8320;BME280;4197;42.130;24.746;2022-09-09T04:37:55;99720.66;;;16.70;100.00
8320;BME280;4197;42.130;24.746;2022-09-09T04:40:23;99716.75;;;16.75;100.00
8320;BME280;4197;42.130;24.746;2022-09-09T04:42:51;99721.47;;;16.78;100.00
8320;BME280;4197;42.130;24.746;2022-09-09T04:45:19;99732.00;;;16.76;100.00
8320;BME280;4197;42.130;24.746;2022-09-09T04:47:47;99727.34;;;16.80;100.00
8320;BME280;4197;42.130;24.746;2022-09-09T04:50:16;99730.50;;;16.97;100.00
8320;BME280;4197;42.130;24.746;2022-09-09T04:52:44;99733.25;;;16.97;100.00
8320;BME280;4197;42.130;24.746;2022-09-09T04:55:14;99730.09;;;16.94;100.00
8320;BME280;4197;42.130;24.746;2022-09-09T04:57:42;99741.06;;;16.94;100.00
8320;BME280;4197;42.130;24.746;2022-09-09T05:00:11;99752.41;;;17.00;100.00
8320;BME280;4197;42.130;24.746;2022-09-09T05:02:40;99748.13;;;17.10;100.00
8320;BME280;4197;42.130;24.746;2022-09-09T05:05:09;99750.47;;;17.08;100.00
8320;BME280;4197;42.130;24.746;2022-09-09T05:07:37;99742.63;;;17.21;100.00
8320;BME280;4197;42.130;24.746;2022-09-09T05:10:06;99745.75;;;17.26;100.00
8320;BME280;4197;42.130;24.746;2022-09-09T05:12:35;99750.50;;;17.29;100.00
8320;BME280;4197;42.130;24.746;2022-09-09T05:15:04;99750.50;;;17.29;100.00
8320;BME280;4197;42.130;24.746;2022-09-09T05:17:33;99755.94;;;17.26;100.00
8320;BME280;4197;42.130;24.746;2022-09-09T05:20:02;99748.91;;;17.39;100.00
8320;BME280;4197;42.130;24.746;2022-09-09T05:22:36;99741.88;;;17.38;100.00
8320;BME280;4197;42.130;24.746;2022-09-09T05:25:04;99738.34;;;17.30;100.00
8320;BME280;4197;42.130;24.746;2022-09-09T05:27:33;99734.03;;;17.36;100.00
8320;BME280;4197;42.130;24.746;2022-09-09T05:30:03;99732.03;;;17.51;99.56
8320;BME280;4197;42.130;24.746;2022-09-09T05:32:32;99735.97;;;17.54;99.58
8320;BME280;4197;42.130;24.746;2022-09-09T05:35:00;99736.75;;;17.54;98.34
8320;BME280;4197;42.130;24.746;2022-09-09T05:37:30;99741.84;;;17.56;96.76
8320;BME280;4197;42.130;24.746;2022-09-09T05:39:58;99741.81;;;17.59;95.26
8320;BME280;4197;42.130;24.746;2022-09-09T05:42:30;99752.81;;;17.63;95.29
8320;BME280;4197;42.130;24.746;2022-09-09T05:44:59;99743.78;;;17.66;94.66
8320;BME280;4197;42.130;24.746;2022-09-09T05:47:28;99745.75;;;17.76;94.27
8320;BME280;4197;42.130;24.746;2022-09-09T05:49:56;99740.28;;;17.80;93.45
8320;BME280;4197;42.130;24.746;2022-09-09T05:52:24;99733.59;;;17.81;93.01
8320;BME280;4197;42.130;24.746;2022-09-09T05:54:53;99733.19;;;17.79;93.76
8320;BME280;4197;42.130;24.746;2022-09-09T05:57:23;99741.41;;;17.93;92.32
8320;BME280;4197;42.130;24.746;2022-09-09T05:59:51;99743.38;;;17.96;92.19
8320;BME280;4197;42.130;24.746;2022-09-09T06:02:20;99744.13;;;18.00;90.73
8320;BME280;4197;42.130;24.746;2022-09-09T06:04:49;99734.69;;;18.09;89.52
8320;BME280;4197;42.130;24.746;2022-09-09T06:07:18;99732.31;;;18.14;89.80
8320;BME280;4197;42.130;24.746;2022-09-09T06:09:46;99715.84;;;18.21;87.94
8320;BME280;4197;42.130;24.746;2022-09-09T06:12:14;99710.34;;;18.21;88.12
8320;BME280;4197;42.130;24.746;2022-09-09T06:14:43;99712.25;;;18.28;88.47
8320;BME280;4197;42.130;24.746;2022-09-09T06:17:12;99713.84;;;18.25;89.28
8320;BME280;4197;42.130;24.746;2022-09-09T06:19:40;99720.41;;;18.42;87.00
8320;BME280;4197;42.130;24.746;2022-09-09T06:22:09;99719.59;;;18.53;86.62
8320;BME280;4197;42.130;24.746;2022-09-09T06:24:38;99715.66;;;18.54;87.11
8320;BME280;4197;42.130;24.746;2022-09-09T06:27:06;99717.91;;;18.69;86.75
8320;BME280;4197;42.130;24.746;2022-09-09T06:29:34;99713.63;;;18.68;86.63
8320;BME280;4197;42.130;24.746;2022-09-09T06:32:03;99710.81;;;18.83;86.03
8320;BME280;4197;42.130;24.746;2022-09-09T06:34:31;99723.66;;;18.97;83.95
8320;BME280;4197;42.130;24.746;2022-09-09T06:36:59;99727.53;;;19.03;83.76
8320;BME280;4197;42.130;24.746;2022-09-09T06:39:29;99729.50;;;19.02;84.58
8320;BME280;4197;42.130;24.746;2022-09-09T06:41:57;99732.56;;;19.15;83.26
8320;BME280;4197;42.130;24.746;2022-09-09T06:44:26;99736.78;;;19.23;82.89
8320;BME280;4197;42.130;24.746;2022-09-09T06:47:00;99733.69;;;19.17;83.16
8320;BME280;4197;42.130;24.746;2022-09-09T06:49:28;99732.91;;;19.21;83.47
8320;BME280;4197;42.130;24.746;2022-09-09T06:51:56;99735.19;;;19.29;82.72
8320;BME280;4197;42.130;24.746;2022-09-09T06:54:24;99734.28;;;19.43;81.50
8320;BME280;4197;42.130;24.746;2022-09-09T06:56:54;99735.00;;;19.47;80.94
8320;BME280;4197;42.130;24.746;2022-09-09T06:59:22;99733.03;;;19.48;81.78
8320;BME280;4197;42.130;24.746;2022-09-09T07:01:50;99731.78;;;19.59;80.25
8320;BME280;4197;42.130;24.746;2022-09-09T07:04:22;99732.13;;;19.61;80.04
8320;BME280;4197;42.130;24.746;2022-09-09T07:06:50;99732.81;;;19.76;79.49
8320;BME280;4197;42.130;24.746;2022-09-09T07:09:20;99729.66;;;19.74;79.45
8320;BME280;4197;42.130;24.746;2022-09-09T07:11:50;99729.50;;;19.89;78.59
8320;BME280;4197;42.130;24.746;2022-09-09T07:14:21;99729.13;;;19.90;78.69
8320;BME280;4197;42.130;24.746;2022-09-09T07:16:49;99723.50;;;19.97;77.87
8320;BME280;4197;42.130;24.746;2022-09-09T07:19:20;99731.59;;;20.12;77.88
8320;BME280;4197;42.130;24.746;2022-09-09T07:21:48;99732.34;;;20.16;76.99
8320;BME280;4197;42.130;24.746;2022-09-09T07:24:16;99729.88;;;20.25;76.88
8320;BME280;4197;42.130;24.746;2022-09-09T07:26:45;99733.56;;;20.11;77.19
8320;BME280;4197;42.130;24.746;2022-09-09T07:29:13;99737.34;;;20.24;76.51
8320;BME280;4197;42.130;24.746;2022-09-09T07:31:47;99736.66;;;20.47;75.02
8320;BME280;4197;42.130;24.746;2022-09-09T07:34:16;99730.88;;;20.69;73.50
8320;BME280;4197;42.130;24.746;2022-09-09T07:36:45;99726.94;;;20.70;73.64
8320;BME280;4197;42.130;24.746;2022-09-09T07:39:14;99724.44;;;20.79;72.96
8320;BME280;4197;42.130;24.746;2022-09-09T07:41:46;99721.31;;;20.77;73.34
8320;BME280;4197;42.130;24.746;2022-09-09T07:44:16;99729.84;;;20.86;73.33
8320;BME280;4197;42.130;24.746;2022-09-09T07:46:45;99725.22;;;21.07;72.33
8320;BME280;4197;42.130;24.746;2022-09-09T07:49:15;99723.16;;;21.11;70.47
8320;BME280;4197;42.130;24.746;2022-09-09T07:51:53;99723.06;;;21.18;69.62
8320;BME280;4197;42.130;24.746;2022-09-09T07:54:21;99721.97;;;21.35;69.02
8320;BME280;4197;42.130;24.746;2022-09-09T07:56:50;99721.09;;;21.42;69.79
8320;BME280;4197;42.130;24.746;2022-09-09T07:59:19;99719.72;;;21.54;68.65
8320;BME280;4197;42.130;24.746;2022-09-09T08:01:49;99724.59;;;21.66;68.46
8320;BME280;4197;42.130;24.746;2022-09-09T08:04:24;99708.56;;;21.81;68.36
8320;BME280;4197;42.130;24.746;2022-09-09T08:06:54;99707.47;;;21.95;67.01
8320;BME280;4197;42.130;24.746;2022-09-09T08:09:24;99708.06;;;22.06;66.03
8320;BME280;4197;42.130;24.746;2022-09-09T08:11:56;99710.91;;;22.22;65.09
8320;BME280;4197;42.130;24.746;2022-09-09T08:14:25;99706.50;;;22.45;63.35
8320;BME280;4197;42.130;24.746;2022-09-09T08:16:53;99704.19;;;22.60;62.85
8320;BME280;4197;42.130;24.746;2022-09-09T08:19:25;99703.72;;;22.61;62.92
8320;BME280;4197;42.130;24.746;2022-09-09T08:21:55;99709.63;;;22.63;63.35
8320;BME280;4197;42.130;24.746;2022-09-09T08:24:23;99698.06;;;22.68;62.92
8320;BME280;4197;42.130;24.746;2022-09-09T08:26:51;99698.56;;;22.80;62.19
8320;BME280;4197;42.130;24.746;2022-09-09T08:29:20;99691.56;;;22.91;63.02
8320;BME280;4197;42.130;24.746;2022-09-09T08:31:50;99690.31;;;23.29;60.95
8320;BME280;4197;42.130;24.746;2022-09-09T08:34:19;99684.50;;;23.40;59.77
8320;BME280;4197;42.130;24.746;2022-09-09T08:36:50;99681.09;;;23.48;59.50
8320;BME280;4197;42.130;24.746;2022-09-09T08:39:20;99684.88;;;23.54;59.17
8320;BME280;4197;42.130;24.746;2022-09-09T08:42:13;99680.69;;;23.63;57.67
8320;BME280;4197;42.130;24.746;2022-09-09T08:45:03;99683.72;;;23.39;59.23
8320;BME280;4197;42.130;24.746;2022-09-09T08:47:46;99686.34;;;23.59;58.13
8320;BME280;4197;42.130;24.746;2022-09-09T08:50:22;99685.00;;;23.64;57.45
8320;BME280;4197;42.130;24.746;2022-09-09T08:53:01;99685.47;;;23.62;57.58
8320;BME280;4197;42.130;24.746;2022-09-09T08:55:39;99677.94;;;23.63;57.28
8320;BME280;4197;42.130;24.746;2022-09-09T08:58:14;99678.56;;;23.54;57.21
8320;BME280;4197;42.130;24.746;2022-09-09T09:00:54;99678.03;;;23.13;58.76
8320;BME280;4197;42.130;24.746;2022-09-09T09:03:33;99680.28;;;23.19;58.83
8320;BME280;4197;42.130;24.746;2022-09-09T09:06:08;99675.16;;;23.33;58.74
8320;BME280;4197;42.130;24.746;2022-09-09T09:08:47;99669.75;;;23.59;57.84
8320;BME280;4197;42.130;24.746;2022-09-09T09:11:19;99672.13;;;23.73;57.73
8320;BME280;4197;42.130;24.746;2022-09-09T09:13:54;99676.63;;;23.96;57.20
8320;BME280;4197;42.130;24.746;2022-09-09T09:16:28;99666.81;;;24.21;56.23
8320;BME280;4197;42.130;24.746;2022-09-09T09:18:59;99660.41;;;24.37;55.06
8320;BME280;4197;42.130;24.746;2022-09-09T09:21:34;99663.03;;;24.27;56.03
8320;BME280;4197;42.130;24.746;2022-09-09T09:24:12;99660.72;;;24.26;55.49
8320;BME280;4197;42.130;24.746;2022-09-09T09:26:48;99645.94;;;24.16;55.05
8320;BME280;4197;42.130;24.746;2022-09-09T09:29:17;99631.13;;;24.23;55.06
8320;BME280;4197;42.130;24.746;2022-09-09T09:31:51;99635.78;;;24.26;55.72
8320;BME280;4197;42.130;24.746;2022-09-09T09:34:21;99638.09;;;24.40;55.32
8320;BME280;4197;42.130;24.746;2022-09-09T09:36:53;99635.66;;;24.42;55.51
8320;BME280;4197;42.130;24.746;2022-09-09T09:39:25;99626.72;;;24.51;54.93
8320;BME280;4197;42.130;24.746;2022-09-09T09:42:17;99622.78;;;24.87;54.95
8320;BME280;4197;42.130;24.746;2022-09-09T09:44:49;99617.97;;;25.00;54.42
8320;BME280;4197;42.130;24.746;2022-09-09T09:47:18;99621.59;;;25.23;53.78
8320;BME280;4197;42.130;24.746;2022-09-09T09:49:53;99621.72;;;25.41;52.62
8320;BME280;4197;42.130;24.746;2022-09-09T09:52:23;99624.00;;;25.55;52.10
8320;BME280;4197;42.130;24.746;2022-09-09T09:54:54;99607.72;;;25.67;51.43
8320;BME280;4197;42.130;24.746;2022-09-09T09:57:26;99604.56;;;25.55;50.94
8320;BME280;4197;42.130;24.746;2022-09-09T10:00:04;99609.78;;;25.53;51.83
8320;BME280;4197;42.130;24.746;2022-09-09T10:02:40;99607.41;;;25.65;51.98
8320;BME280;4197;42.130;24.746;2022-09-09T10:05:15;99602.16;;;25.89;50.58
8320;BME280;4197;42.130;24.746;2022-09-09T10:08:01;99598.41;;;25.60;51.17
8320;BME280;4197;42.130;24.746;2022-09-09T10:10:40;99591.69;;;25.27;52.98
8320;BME280;4197;42.130;24.746;2022-09-09T10:13:20;99581.84;;;25.48;53.16
8320;BME280;4197;42.130;24.746;2022-09-09T10:16:05;99584.84;;;25.63;51.34
8320;BME280;4197;42.130;24.746;2022-09-09T10:18:47;99582.03;;;25.53;52.57
8320;BME280;4197;42.130;24.746;2022-09-09T10:21:28;99583.44;;;25.58;53.04
8320;BME280;4197;42.130;24.746;2022-09-09T10:24:22;99576.84;;;25.65;53.53
8320;BME280;4197;42.130;24.746;2022-09-09T10:27:00;99582.59;;;25.70;54.22
8320;BME280;4197;42.130;24.746;2022-09-09T10:29:39;99582.25;;;25.68;54.28
8320;BME280;4197;42.130;24.746;2022-09-09T10:32:31;99589.38;;;25.91;53.98
8320;BME280;4197;42.130;24.746;2022-09-09T10:35:08;99583.13;;;26.09;53.10
8320;BME280;4197;42.130;24.746;2022-09-09T10:37:52;99576.41;;;26.38;52.46
8320;BME280;4197;42.130;24.746;2022-09-09T10:40:32;99573.69;;;26.47;52.14
8320;BME280;4197;42.130;24.746;2022-09-09T10:43:18;99583.56;;;26.48;51.04
8320;BME280;4197;42.130;24.746;2022-09-09T10:45:55;99578.59;;;26.43;52.24
8320;BME280;4197;42.130;24.746;2022-09-09T10:48:31;99564.94;;;26.58;51.40
8320;BME280;4197;42.130;24.746;2022-09-09T10:51:22;99564.63;;;26.74;51.29
8320;BME280;4197;42.130;24.746;2022-09-09T10:54:02;99568.97;;;26.84;51.35
8320;BME280;4197;42.130;24.746;2022-09-09T10:56:34;99567.88;;;26.63;51.68
8320;BME280;4197;42.130;24.746;2022-09-09T10:59:08;99558.59;;;26.85;51.31
8320;BME280;4197;42.130;24.746;2022-09-09T11:01:42;99556.00;;;27.00;50.36
8320;BME280;4197;42.130;24.746;2022-09-09T11:04:16;99561.06;;;27.01;50.31
8320;BME280;4197;42.130;24.746;2022-09-09T11:06:48;99554.44;;;27.08;50.22
8320;BME280;4197;42.130;24.746;2022-09-09T11:09:21;99551.81;;;26.95;48.87
8320;BME280;4197;42.130;24.746;2022-09-09T11:11:53;99546.69;;;26.84;49.78
8320;BME280;4197;42.130;24.746;2022-09-09T11:14:30;99541.13;;;26.84;50.32
8320;BME280;4197;42.130;24.746;2022-09-09T11:17:06;99540.06;;;26.82;49.66
8320;BME280;4197;42.130;24.746;2022-09-09T11:19:39;99545.31;;;26.80;49.78
8320;BME280;4197;42.130;24.746;2022-09-09T11:22:15;99532.63;;;26.88;49.34
8320;BME280;4197;42.130;24.746;2022-09-09T11:24:47;99528.94;;;26.91;50.21
8320;BME280;4197;42.130;24.746;2022-09-09T11:27:21;99524.13;;;27.01;50.33
8320;BME280;4197;42.130;24.746;2022-09-09T11:30:20;99516.09;;;27.30;49.96
8320;BME280;4197;42.130;24.746;2022-09-09T11:33:29;99526.72;;;27.50;49.65
8320;BME280;4197;42.130;24.746;2022-09-09T11:39:06;99511.84;;;27.53;49.10
8320;BME280;4197;42.130;24.746;2022-09-09T11:41:37;99510.94;;;27.47;47.87
8320;BME280;4197;42.130;24.746;2022-09-09T11:44:10;99510.97;;;27.38;47.68
8320;BME280;4197;42.130;24.746;2022-09-09T11:46:42;99511.84;;;27.53;47.17
8320;BME280;4197;42.130;24.746;2022-09-09T11:49:26;99511.94;;;27.68;47.24
8320;BME280;4197;42.130;24.746;2022-09-09T11:51:55;99509.16;;;27.77;46.35
8320;BME280;4197;42.130;24.746;2022-09-09T11:54:31;99505.50;;;27.53;46.77
8320;BME280;4197;42.130;24.746;2022-09-09T11:57:02;99507.03;;;27.63;47.22
8320;BME280;4197;42.130;24.746;2022-09-09T11:59:32;99497.84;;;27.81;46.05
8320;BME280;4197;42.130;24.746;2022-09-09T12:02:03;99497.47;;;27.97;46.25
8320;BME280;4197;42.130;24.746;2022-09-09T12:04:37;99489.59;;;28.20;45.23
8320;BME280;4197;42.130;24.746;2022-09-09T12:07:26;99489.53;;;28.29;45.11
8320;BME280;4197;42.130;24.746;2022-09-09T12:10:02;99478.94;;;28.42;44.93
8320;BME280;4197;42.130;24.746;2022-09-09T12:12:33;99479.59;;;28.61;44.52
8320;BME280;4197;42.130;24.746;2022-09-09T12:15:22;99473.56;;;28.78;43.32
8320;BME280;4197;42.130;24.746;2022-09-09T12:17:54;99475.59;;;28.77;44.52
8320;BME280;4197;42.130;24.746;2022-09-09T12:20:33;99473.78;;;28.89;44.65
8320;BME280;4197;42.130;24.746;2022-09-09T12:23:19;99472.16;;;28.97;45.08
8320;BME280;4197;42.130;24.746;2022-09-09T12:25:59;99465.50;;;28.95;45.27
8320;BME280;4197;42.130;24.746;2022-09-09T12:28:49;99459.63;;;28.92;45.04
8320;BME280;4197;42.130;24.746;2022-09-09T12:31:24;99457.41;;;28.97;45.09
8320;BME280;4197;42.130;24.746;2022-09-09T12:34:06;99456.38;;;29.09;44.61
8320;BME280;4197;42.130;24.746;2022-09-09T12:36:38;99453.38;;;29.12;44.41
8320;BME280;4197;42.130;24.746;2022-09-09T12:39:16;99456.88;;;29.22;43.03
8320;BME280;4197;42.130;24.746;2022-09-09T12:41:51;99456.78;;;29.17;43.14
8320;BME280;4197;42.130;24.746;2022-09-09T12:44:24;99454.63;;;29.26;42.56
8320;BME280;4197;42.130;24.746;2022-09-09T12:46:55;99457.34;;;29.21;43.11
8320;BME280;4197;42.130;24.746;2022-09-09T12:49:33;99442.91;;;29.07;43.21
8320;BME280;4197;42.130;24.746;2022-09-09T12:52:06;99429.88;;;28.89;43.25
8320;BME280;4197;42.130;24.746;2022-09-09T12:54:36;99434.72;;;28.50;44.75
8320;BME280;4197;42.130;24.746;2022-09-09T12:57:09;99439.66;;;28.70;45.40
8320;BME280;4197;42.130;24.746;2022-09-09T12:59:40;99440.50;;;29.15;43.29
8320;BME280;4197;42.130;24.746;2022-09-09T13:02:17;99433.81;;;29.57;42.29
8320;BME280;4197;42.130;24.746;2022-09-09T13:04:47;99428.22;;;29.72;41.53
8320;BME280;4197;42.130;24.746;2022-09-09T13:07:17;99419.47;;;29.85;40.97
8320;BME280;4197;42.130;24.746;2022-09-09T13:09:47;99418.78;;;29.90;41.08
8320;BME280;4197;42.130;24.746;2022-09-09T13:12:18;99422.53;;;30.01;40.78
8320;BME280;4197;42.130;24.746;2022-09-09T13:14:49;99425.66;;;30.09;40.42
8320;BME280;4197;42.130;24.746;2022-09-09T13:17:21;99420.94;;;30.15;40.17
8320;BME280;4197;42.130;24.746;2022-09-09T13:19:51;99416.06;;;29.95;41.16
8320;BME280;4197;42.130;24.746;2022-09-09T13:22:28;99410.63;;;29.86;41.67
8320;BME280;4197;42.130;24.746;2022-09-09T13:25:01;99406.78;;;29.84;41.35
8320;BME280;4197;42.130;24.746;2022-09-09T13:27:31;99406.84;;;29.89;41.11
8320;BME280;4197;42.130;24.746;2022-09-09T13:30:01;99405.84;;;29.72;42.02
8320;BME280;4197;42.130;24.746;2022-09-09T13:32:29;99413.28;;;29.60;42.39
8320;BME280;4197;42.130;24.746;2022-09-09T13:35:00;99408.22;;;29.79;41.50
8320;BME280;4197;42.130;24.746;2022-09-09T13:37:33;99402.94;;;29.81;41.42
8320;BME280;4197;42.130;24.746;2022-09-09T13:40:03;99396.94;;;29.88;41.25
8320;BME280;4197;42.130;24.746;2022-09-09T13:42:35;99391.66;;;29.75;41.31